Terminal Aerodrome Forecast
Issued by NWS Sterling, VA

Current Version | Previous Version | Graphics & Text | Print | Product List | Glossary On
Versions: 1 2 3 4 5 6 7 8 9 10 11 12 13 14 15 16 17 18 19 20 21 22
899
FTUS41 KLWX 210524
TAFIAD
TAF
KIAD 210524Z 2106/2212 VRB04KT P6SM BKN200
     FM210900 01004KT 4SM BR SCT100 BKN200
     FM211200 02004KT P6SM SCT100
     FM211700 09004KT P6SM SCT100
     FM212000 12005KT P6SM BKN100=

USA.gov is the U.S. government's official web portal to all federal, state and local government web resources and services.